createdAt,value
2022-09-26T00:01:56.363Z,74.40
2022-09-26T00:04:33.497Z,80.20
2022-09-26T00:07:09.838Z,70.80
2022-09-26T00:09:46.061Z,72.50
2022-09-26T00:12:22.590Z,72.40
2022-09-26T00:14:59.036Z,76.10
2022-09-26T00:17:35.691Z,72.60
2022-09-26T00:20:13.872Z,96.60
2022-09-26T00:22:50.300Z,93.80
2022-09-26T00:25:27.165Z,81.90
2022-09-26T00:28:03.851Z,92.60
2022-09-26T00:30:44.710Z,97.60
2022-09-26T00:33:21.478Z,109.60
2022-09-26T00:35:59.202Z,101.20
2022-09-26T00:38:36.168Z,118.10
2022-09-26T00:41:13.645Z,120.50
2022-09-26T00:43:54.987Z,117.00
2022-09-26T00:46:38.472Z,115.50
2022-09-26T00:49:36.002Z,109.70
2022-09-26T00:52:21.721Z,111.30
2022-09-26T00:55:04.051Z,104.80
2022-09-26T00:57:48.546Z,109.70
2022-09-26T01:00:27.396Z,108.40
2022-09-26T01:03:04.579Z,113.80
2022-09-26T01:05:41.358Z,123.10
2022-09-26T01:08:23.205Z,125.60
2022-09-26T01:13:39.178Z,108.20
2022-09-26T01:16:15.419Z,103.60
2022-09-26T01:18:52.441Z,105.20
2022-09-26T01:22:13.522Z,104.40
2022-09-26T01:25:13.879Z,103.30
2022-09-26T01:28:20.112Z,110.00
2022-09-26T01:31:08.373Z,107.30
2022-09-26T01:34:11.157Z,107.40
2022-09-26T01:37:10.861Z,116.90
2022-09-26T01:40:04.417Z,118.80
2022-09-26T01:42:55.058Z,116.50
2022-09-26T01:45:44.440Z,132.40
2022-09-26T01:48:35.055Z,140.40
2022-09-26T01:51:21.416Z,139.90
2022-09-26T01:54:07.478Z,148.30
2022-09-26T01:56:48.060Z,135.30
2022-09-26T01:59:30.641Z,133.70
2022-09-26T02:02:20.484Z,134.60
2022-09-26T02:05:04.120Z,132.00
2022-09-26T02:07:48.399Z,138.80
2022-09-26T02:10:31.768Z,136.80
2022-09-26T02:13:19.213Z,126.60
2022-09-26T02:16:03.133Z,118.30
2022-09-26T02:18:46.517Z,113.70
2022-09-26T02:21:26.268Z,109.70
2022-09-26T02:24:03.199Z,108.20
2022-09-26T02:26:42.292Z,113.80
2022-09-26T02:29:20.751Z,109.50
2022-09-26T02:32:06.298Z,112.90
2022-09-26T02:34:44.258Z,109.70
2022-09-26T02:37:23.396Z,107.80
2022-09-26T02:40:01.258Z,112.10
2022-09-26T02:42:51.889Z,107.60
2022-09-26T02:45:41.861Z,110.20
2022-09-26T02:48:47.009Z,101.50
2022-09-26T02:51:54.598Z,108.60
2022-09-26T02:54:46.527Z,104.60
2022-09-26T02:57:41.769Z,111.20
2022-09-26T03:00:24.881Z,111.50
2022-09-26T03:03:14.751Z,100.60
2022-09-26T03:05:56.155Z,106.90
2022-09-26T03:08:38.891Z,97.20
2022-09-26T03:11:21.780Z,91.60
2022-09-26T03:14:00.593Z,86.40
2022-09-26T03:16:45.772Z,87.20
2022-09-26T03:19:33.356Z,83.40
2022-09-26T03:22:10.217Z,78.00
2022-09-26T03:24:49.402Z,72.50
2022-09-26T03:27:26.927Z,79.40
2022-09-26T03:30:04.486Z,81.10
2022-09-26T03:32:43.411Z,71.60
2022-09-26T03:35:20.946Z,78.80
2022-09-26T03:37:57.782Z,75.60
2022-09-26T03:40:46.818Z,71.10
2022-09-26T03:43:44.087Z,68.50
2022-09-26T03:46:20.785Z,70.00
2022-09-26T03:48:57.218Z,73.80
2022-09-26T03:51:34.301Z,72.70
2022-09-26T03:54:12.459Z,62.40
2022-09-26T03:56:48.679Z,63.20
2022-09-26T03:59:26.330Z,61.40
2022-09-26T04:02:02.850Z,65.40
2022-09-26T04:04:40.633Z,67.80
2022-09-26T04:07:18.096Z,58.80
2022-09-26T04:09:54.299Z,60.20
2022-09-26T04:12:30.488Z,64.10
2022-09-26T04:15:07.694Z,63.60
2022-09-26T04:17:44.210Z,60.70
2022-09-26T04:20:20.800Z,64.40
2022-09-26T04:22:57.416Z,56.70
2022-09-26T04:25:37.644Z,59.00
2022-09-26T04:28:13.883Z,58.50
2022-09-26T04:30:50.710Z,59.70
2022-09-26T04:33:28.740Z,60.10
2022-09-26T04:36:18.213Z,60.20
2022-09-26T04:38:55.362Z,53.40
2022-09-26T04:41:32.810Z,55.00
2022-09-26T04:44:12.833Z,60.00
2022-09-26T04:46:49.575Z,53.40
2022-09-26T04:49:26.165Z,58.40
2022-09-26T04:52:02.919Z,58.20
2022-09-26T04:54:39.216Z,59.00
2022-09-26T04:57:19.574Z,58.70
2022-09-26T04:59:56.356Z,60.70
2022-09-26T05:02:32.665Z,63.40
2022-09-26T05:05:10.489Z,57.90
2022-09-26T05:07:47.496Z,56.80
2022-09-26T05:10:23.815Z,56.10
2022-09-26T05:13:07.696Z,59.70
2022-09-26T05:15:45.702Z,59.30
2022-09-26T05:18:23.416Z,59.60
2022-09-26T05:21:01.404Z,57.80
2022-09-26T05:23:56.603Z,58.70
2022-09-26T05:26:45.103Z,54.80
2022-09-26T05:29:21.938Z,54.30
2022-09-26T05:32:01.518Z,47.40
2022-09-26T05:34:40.552Z,49.80
2022-09-26T05:37:17.113Z,55.10
2022-09-26T05:40:11.310Z,50.80
2022-09-26T05:42:50.654Z,51.20
2022-09-26T05:45:27.457Z,48.60
2022-09-26T05:48:03.972Z,49.20
2022-09-26T05:50:43.444Z,48.90
2022-09-26T05:53:20.334Z,54.80
2022-09-26T05:55:57.459Z,54.00
2022-09-26T05:58:44.969Z,47.80
2022-09-26T06:01:26.752Z,47.50
2022-09-26T06:04:05.823Z,53.00
2022-09-26T06:06:50.937Z,48.30
2022-09-26T06:09:27.188Z,51.60
2022-09-26T06:12:21.483Z,50.80
2022-09-26T06:14:58.169Z,47.60
2022-09-26T06:17:34.363Z,46.90
2022-09-26T06:20:13.354Z,50.90
2022-09-26T06:22:49.803Z,45.70
2022-09-26T06:25:26.854Z,43.90
2022-09-26T06:28:03.912Z,47.60
2022-09-26T06:30:40.325Z,45.90
2022-09-26T06:33:22.090Z,54.90
2022-09-26T06:36:41.435Z,42.00
2022-09-26T06:39:18.039Z,44.40
2022-09-26T06:41:57.138Z,43.20
2022-09-26T06:45:23.642Z,45.70
2022-09-26T06:48:52.955Z,36.80
2022-09-26T06:52:30.081Z,44.50
2022-09-26T06:55:09.535Z,97.20
2022-09-26T06:57:46.965Z,41.80
2022-09-26T07:00:23.438Z,40.90
2022-09-26T07:03:16.118Z,39.40
2022-09-26T07:06:00.756Z,40.80
2022-09-26T07:09:00.990Z,38.70
2022-09-26T07:12:13.717Z,40.30
2022-09-26T07:14:51.364Z,36.40
2022-09-26T07:17:37.857Z,37.20
2022-09-26T07:20:20.077Z,36.80
2022-09-26T07:23:16.545Z,40.50
2022-09-26T07:25:53.280Z,36.40
2022-09-26T07:28:30.496Z,35.00
2022-09-26T07:31:07.751Z,34.60
2022-09-26T07:33:52.946Z,34.20
2022-09-26T07:36:29.140Z,32.70
2022-09-26T07:39:05.505Z,50.60
2022-09-26T07:41:41.923Z,32.50
2022-09-26T07:45:09.296Z,32.90
2022-09-26T07:47:32.945Z,35.40
2022-09-26T07:50:15.706Z,31.10
2022-09-26T07:53:01.354Z,31.60
2022-09-26T07:55:57.731Z,31.60
2022-09-26T07:58:54.551Z,35.50
2022-09-26T08:01:47.402Z,28.70
2022-09-26T08:07:24.691Z,31.10
2022-09-26T08:10:09.285Z,28.70
2022-09-26T08:13:38.916Z,27.40
2022-09-26T08:16:28.763Z,29.20
2022-09-26T08:19:08.799Z,29.40
2022-09-26T08:21:45.480Z,29.60
2022-09-26T08:24:22.671Z,29.30
2022-09-26T08:27:18.096Z,26.70
2022-09-26T08:29:56.873Z,26.90
2022-09-26T08:32:33.521Z,22.60
2022-09-26T08:35:12.289Z,22.60
2022-09-26T08:38:04.613Z,23.00
2022-09-26T08:41:41.561Z,23.20
2022-09-26T08:46:01.866Z,22.10
2022-09-26T08:50:02.817Z,23.40
2022-09-26T08:52:51.983Z,25.70
2022-09-26T08:55:35.228Z,23.00
2022-09-26T08:58:20.029Z,24.90
2022-09-26T09:01:05.586Z,23.70
2022-09-26T09:04:08.145Z,23.10
2022-09-26T09:06:45.297Z,23.80
2022-09-26T09:09:22.381Z,26.60
2022-09-26T09:12:31.971Z,24.30
2022-09-26T09:15:54.066Z,25.00
2022-09-26T09:18:57.167Z,22.10
2022-09-26T09:22:26.950Z,27.40
2022-09-26T09:25:23.387Z,26.60
2022-09-26T09:28:32.584Z,26.40
2022-09-26T09:31:12.951Z,25.50
2022-09-26T09:34:17.303Z,27.50
2022-09-26T09:37:22.228Z,26.30
2022-09-26T09:40:02.013Z,26.50
2022-09-26T09:42:52.097Z,25.80
2022-09-26T09:45:40.020Z,25.80
2022-09-26T09:48:18.867Z,26.80
2022-09-26T09:51:17.135Z,26.00
2022-09-26T09:54:31.829Z,30.80
2022-09-26T09:57:40.061Z,27.60
2022-09-26T10:00:22.297Z,26.50
2022-09-26T10:03:19.368Z,30.90
2022-09-26T10:06:01.834Z,29.50
2022-09-26T10:08:44.833Z,25.40
2022-09-26T10:11:31.575Z,30.90
2022-09-26T10:15:04.802Z,34.20
2022-09-26T10:18:28.788Z,282.70
2022-09-26T10:21:19.074Z,51.90
2022-09-26T10:23:55.954Z,37.20
2022-09-26T10:26:54.164Z,35.00
2022-09-26T10:29:45.333Z,37.10
2022-09-26T10:32:22.574Z,33.80
2022-09-26T10:35:24.460Z,39.50
2022-09-26T10:38:19.238Z,40.10
2022-09-26T10:41:00.518Z,38.50
2022-09-26T10:43:39.713Z,41.40
2022-09-26T10:46:32.591Z,39.10
2022-09-26T10:50:03.114Z,66.60
2022-09-26T10:53:34.406Z,41.90
2022-09-26T10:56:23.601Z,36.10
2022-09-26T10:59:10.296Z,36.20
2022-09-26T11:01:56.676Z,40.80
2022-09-26T11:05:03.976Z,41.20
2022-09-26T11:08:06.849Z,38.50
2022-09-26T11:11:24.132Z,42.90
2022-09-26T11:14:09.088Z,36.10
2022-09-26T11:17:00.492Z,36.60
2022-09-26T11:19:54.627Z,38.90
2022-09-26T11:22:41.736Z,40.90
2022-09-26T11:25:25.520Z,40.60
2022-09-26T11:28:11.912Z,41.50
2022-09-26T11:31:14.404Z,30.70
2022-09-26T11:37:14.197Z,24.70
2022-09-26T11:40:17.686Z,24.90
2022-09-26T11:43:17.825Z,25.10
2022-09-26T11:46:23.928Z,24.40
2022-09-26T11:49:45.281Z,25.30
2022-09-26T11:53:09.840Z,24.60
2022-09-26T11:56:12.847Z,24.10
2022-09-26T11:58:59.315Z,22.50
2022-09-26T12:01:48.900Z,27.50
2022-09-26T12:04:57.653Z,21.80
2022-09-26T12:07:49.640Z,25.20
2022-09-26T12:10:42.280Z,21.90
2022-09-26T12:13:38.148Z,23.20
2022-09-26T12:16:26.152Z,19.20
2022-09-26T12:19:20.942Z,19.50
2022-09-26T12:22:27.153Z,16.50
2022-09-26T12:25:31.173Z,16.60
2022-09-26T12:28:52.643Z,14.10
2022-09-26T12:31:51.482Z,15.30
2022-09-26T12:35:05.241Z,17.80
2022-09-26T12:38:21.684Z,16.70
2022-09-26T12:41:23.263Z,15.50
2022-09-26T12:44:46.702Z,14.40
2022-09-26T12:48:06.251Z,12.80
2022-09-26T12:51:01.179Z,16.60
2022-09-26T12:54:03.303Z,15.20
2022-09-26T12:56:54.799Z,17.70
2022-09-26T13:00:11.706Z,17.50
2022-09-26T13:03:50.938Z,13.50
2022-09-26T13:07:19.791Z,18.90
2022-09-26T13:10:28.052Z,15.70
2022-09-26T13:14:17.796Z,16.50
2022-09-26T13:17:10.616Z,18.20
2022-09-26T13:19:54.984Z,17.30
2022-09-26T13:22:42.525Z,16.20
2022-09-26T13:25:29.974Z,13.00
2022-09-26T13:28:17.749Z,16.10
2022-09-26T13:31:02.475Z,11.70
2022-09-26T13:33:46.598Z,12.90
2022-09-26T13:36:25.429Z,13.20
2022-09-26T13:39:10.634Z,12.20
2022-09-26T13:42:01.971Z,11.70
2022-09-26T13:45:04.125Z,14.20
2022-09-26T13:47:51.105Z,15.10
2022-09-26T13:50:37.641Z,13.20
2022-09-26T13:53:29.694Z,10.60
2022-09-26T13:56:49.684Z,11.50
2022-09-26T13:59:54.401Z,11.90
2022-09-26T14:02:32.956Z,10.80
2022-09-26T14:05:52.185Z,10.80
2022-09-26T14:08:55.326Z,88.40
2022-09-26T14:11:50.219Z,13.30
2022-09-26T14:14:49.440Z,15.50
2022-09-26T14:18:24.443Z,13.90
2022-09-26T14:21:38.553Z,13.60
2022-09-26T14:24:42.509Z,12.30
2022-09-26T14:27:49.507Z,11.90
2022-09-26T14:30:36.316Z,11.20
2022-09-26T14:33:17.813Z,13.90
2022-09-26T14:36:14.213Z,13.70
2022-09-26T14:38:55.279Z,10.50
2022-09-26T14:41:37.075Z,12.70
2022-09-26T14:44:24.538Z,14.60
2022-09-26T14:47:05.770Z,13.10
2022-09-26T14:49:42.526Z,15.40
2022-09-26T14:52:25.367Z,15.60
2022-09-26T14:55:07.102Z,15.10
2022-09-26T15:00:44.608Z,15.40
2022-09-26T15:03:22.860Z,16.30
2022-09-26T15:06:03.563Z,16.40
2022-09-26T15:08:41.718Z,14.60
2022-09-26T15:11:42.486Z,17.50
2022-09-26T15:14:33.242Z,18.10
2022-09-26T15:17:17.891Z,18.50
2022-09-26T15:20:00.527Z,16.80
2022-09-26T15:22:39.704Z,16.70
2022-09-26T15:25:34.697Z,17.10
2022-09-26T15:28:12.741Z,19.00
2022-09-26T15:30:50.882Z,16.40
2022-09-26T15:33:27.638Z,16.10
2022-09-26T15:36:08.574Z,16.20
2022-09-26T15:38:47.354Z,15.40
2022-09-26T15:41:42.386Z,16.10
2022-09-26T15:44:34.871Z,18.30
2022-09-26T15:47:43.869Z,16.50
2022-09-26T15:50:26.320Z,16.70
2022-09-26T15:53:19.300Z,20.00
2022-09-26T15:56:02.609Z,18.40
2022-09-26T15:58:47.626Z,16.10
2022-09-26T16:01:27.639Z,18.70
2022-09-26T16:04:15.328Z,16.30
2022-09-26T16:10:31.211Z,16.80
2022-09-26T16:13:22.357Z,23.60
2022-09-26T16:16:10.023Z,17.40
2022-09-26T16:18:59.683Z,17.10
2022-09-26T16:21:39.299Z,18.00
2022-09-26T16:24:36.773Z,18.90
2022-09-26T16:27:26.859Z,18.50
2022-09-26T16:30:05.431Z,20.40
2022-09-26T16:32:42.493Z,17.30
2022-09-26T16:35:29.563Z,18.00
2022-09-26T16:38:28.269Z,25.00
2022-09-26T16:41:09.773Z,17.70
2022-09-26T16:43:55.225Z,20.10
2022-09-26T16:46:38.955Z,19.90
2022-09-26T16:49:49.262Z,23.10
2022-09-26T16:52:35.978Z,21.80
2022-09-26T16:55:15.169Z,25.50
2022-09-26T16:57:58.675Z,20.10
2022-09-26T17:00:55.701Z,19.40
2022-09-26T17:03:36.623Z,23.10
2022-09-26T17:06:13.571Z,24.80
2022-09-26T17:08:50.254Z,37.60
2022-09-26T17:11:33.569Z,30.70
2022-09-26T17:14:13.828Z,22.70
2022-09-26T17:16:55.547Z,23.40
2022-09-26T17:19:39.425Z,21.50
2022-09-26T17:22:19.684Z,23.10
2022-09-26T17:24:57.241Z,25.90
2022-09-26T17:27:38.594Z,25.20
2022-09-26T17:30:22.817Z,27.00
2022-09-26T17:32:59.987Z,22.00
2022-09-26T17:35:37.973Z,24.10
2022-09-26T17:38:19.577Z,21.50
2022-09-26T17:40:56.206Z,27.40
2022-09-26T17:43:34.064Z,24.70
2022-09-26T17:46:15.900Z,23.00
2022-09-26T17:48:54.739Z,24.50
2022-09-26T17:51:31.306Z,24.40
2022-09-26T17:54:10.291Z,24.20
2022-09-26T17:56:48.291Z,24.20
2022-09-26T17:59:28.697Z,25.40
2022-09-26T18:02:24.460Z,23.70
2022-09-26T18:05:06.029Z,23.20
2022-09-26T18:07:44.584Z,22.30
2022-09-26T18:10:28.500Z,26.50
2022-09-26T18:13:13.570Z,24.80
2022-09-26T18:15:52.402Z,36.50
2022-09-26T18:18:32.406Z,36.10
2022-09-26T18:21:19.682Z,51.30
2022-09-26T18:24:00.918Z,38.40
2022-09-26T18:26:42.305Z,33.20
2022-09-26T18:29:26.885Z,24.20
2022-09-26T18:32:06.802Z,28.30
2022-09-26T18:34:44.343Z,25.10
2022-09-26T18:37:21.213Z,27.00
2022-09-26T18:40:02.952Z,29.10
2022-09-26T18:42:44.008Z,27.30
2022-09-26T18:45:27.989Z,32.80
2022-09-26T18:48:07.729Z,32.70
2022-09-26T18:50:47.368Z,25.20
2022-09-26T18:53:35.004Z,27.90
2022-09-26T18:56:31.084Z,29.20
2022-09-26T18:59:09.546Z,26.40
2022-09-26T19:01:50.898Z,29.10
2022-09-26T19:04:30.438Z,29.90
2022-09-26T19:07:16.116Z,27.90
2022-09-26T19:09:57.133Z,30.40
2022-09-26T19:12:39.094Z,34.80
2022-09-26T19:15:20.372Z,28.40
2022-09-26T19:17:59.286Z,23.20
2022-09-26T19:20:35.968Z,26.20
2022-09-26T19:23:17.420Z,30.60
2022-09-26T19:25:54.881Z,30.40
2022-09-26T19:28:37.314Z,29.60
2022-09-26T19:31:15.013Z,27.50
2022-09-26T19:33:53.847Z,27.40
2022-09-26T19:36:30.850Z,26.80
2022-09-26T19:39:10.856Z,26.20
2022-09-26T19:41:47.513Z,26.50
2022-09-26T19:44:24.488Z,26.10
2022-09-26T19:47:03.098Z,28.80
2022-09-26T19:49:42.810Z,26.00
2022-09-26T19:52:24.679Z,25.90
2022-09-26T19:55:01.547Z,25.80
2022-09-26T19:57:38.666Z,28.70
2022-09-26T20:00:19.593Z,28.70
2022-09-26T20:02:57.085Z,24.50
2022-09-26T20:05:33.705Z,25.70
2022-09-26T20:08:17.091Z,27.20
2022-09-26T20:10:54.805Z,27.40
2022-09-26T20:13:51.343Z,30.80
2022-09-26T20:16:28.850Z,26.80
2022-09-26T20:19:09.163Z,24.00
2022-09-26T20:21:46.422Z,24.70
2022-09-26T20:24:23.582Z,28.40
2022-09-26T20:27:03.167Z,34.70
2022-09-26T20:29:57.344Z,27.30
2022-09-26T20:32:34.012Z,24.90
2022-09-26T20:35:16.339Z,25.20
2022-09-26T20:37:53.447Z,29.00
2022-09-26T20:40:32.167Z,27.20
2022-09-26T20:43:14.587Z,26.10
2022-09-26T20:45:51.174Z,28.50
2022-09-26T20:48:30.900Z,27.80
2022-09-26T20:51:16.900Z,91.60
2022-09-26T20:53:54.037Z,34.10
2022-09-26T20:56:30.796Z,30.20
2022-09-26T20:59:08.599Z,24.80
2022-09-26T21:01:45.252Z,24.10
2022-09-26T21:04:33.771Z,27.30
2022-09-26T21:07:13.924Z,28.40
2022-09-26T21:09:50.917Z,27.00
2022-09-26T21:12:27.930Z,30.00
2022-09-26T21:15:04.192Z,23.30
2022-09-26T21:17:40.751Z,29.10
2022-09-26T21:20:25.253Z,26.30
2022-09-26T21:23:17.403Z,29.30
2022-09-26T21:25:53.766Z,27.70
2022-09-26T21:28:31.793Z,24.20
2022-09-26T21:31:12.099Z,26.40
2022-09-26T21:33:49.676Z,25.30
2022-09-26T21:36:30.452Z,30.20
2022-09-26T21:39:10.772Z,28.40
2022-09-26T21:41:49.578Z,25.30
2022-09-26T21:44:34.084Z,26.20
2022-09-26T21:47:11.011Z,26.00
2022-09-26T21:49:49.021Z,26.10
2022-09-26T21:52:35.188Z,29.90
2022-09-26T21:55:22.685Z,26.00
2022-09-26T21:58:04.149Z,28.20
2022-09-26T22:00:40.762Z,28.90
2022-09-26T22:03:17.173Z,27.10
2022-09-26T22:05:53.570Z,29.00
2022-09-26T22:08:31.015Z,27.70
2022-09-26T22:11:09.394Z,27.20
2022-09-26T22:13:45.944Z,28.40
2022-09-26T22:16:23.277Z,29.80
2022-09-26T22:18:59.621Z,29.50
2022-09-26T22:21:36.015Z,33.00
2022-09-26T22:24:13.265Z,29.10
2022-09-26T22:26:50.743Z,29.10
2022-09-26T22:29:27.441Z,33.60
2022-09-26T22:32:04.989Z,33.60
2022-09-26T22:34:41.594Z,37.10
2022-09-26T22:37:18.261Z,28.70
2022-09-26T22:39:54.683Z,30.40
2022-09-26T22:42:31.316Z,29.20
2022-09-26T22:45:08.586Z,31.70
2022-09-26T22:47:45.107Z,33.70
2022-09-26T22:50:21.755Z,27.10
2022-09-26T22:52:58.973Z,27.30
2022-09-26T22:55:35.449Z,28.40
2022-09-26T22:58:12.658Z,27.20
2022-09-26T23:00:49.190Z,37.70
2022-09-26T23:03:25.610Z,30.20
2022-09-26T23:06:02.404Z,27.90
2022-09-26T23:08:40.116Z,33.20
2022-09-26T23:11:18.920Z,31.70
2022-09-26T23:13:56.641Z,29.40
2022-09-26T23:16:33.369Z,33.00
2022-09-26T23:19:10.247Z,34.90
2022-09-26T23:21:47.222Z,44.20
2022-09-26T23:24:24.936Z,31.80
2022-09-26T23:27:03.178Z,28.70
2022-09-26T23:29:39.614Z,27.20
2022-09-26T23:32:16.038Z,29.40
2022-09-26T23:34:52.450Z,28.10
2022-09-26T23:37:28.813Z,33.90
2022-09-26T23:40:06.828Z,33.70
2022-09-26T23:42:43.448Z,33.80
2022-09-26T23:45:20.079Z,30.10
2022-09-26T23:47:56.628Z,34.30
2022-09-26T23:50:33.095Z,23.90
2022-09-26T23:53:10.098Z,31.70
2022-09-26T23:55:46.612Z,32.70
2022-09-26T23:58:22.869Z,32.70
